createdAt,value
2024-04-15T00:09:35.427Z,10.60
2024-04-15T00:19:40.354Z,10.40
2024-04-15T00:29:47.997Z,10.20
2024-04-15T00:39:56.368Z,9.90
2024-04-15T00:50:03.862Z,9.40
2024-04-15T01:00:10.553Z,9.10
2024-04-15T01:10:18.128Z,9.00
2024-04-15T01:20:23.480Z,9.00
2024-04-15T01:30:30.996Z,9.00
2024-04-15T01:40:35.910Z,9.00
2024-04-15T01:50:49.277Z,8.80
2024-04-15T02:00:54.357Z,8.80
2024-04-15T02:11:01.918Z,9.00
2024-04-15T02:21:07.370Z,9.40
2024-04-15T02:31:14.967Z,8.80
2024-04-15T02:41:19.938Z,9.10
2024-04-15T02:51:27.825Z,9.00
2024-04-15T03:01:32.722Z,8.50
2024-04-15T03:11:40.311Z,8.50
2024-04-15T03:21:45.271Z,8.40
2024-04-15T03:31:52.896Z,8.80
2024-04-15T03:41:57.812Z,8.30
2024-04-15T03:52:05.416Z,8.30
2024-04-15T04:02:10.423Z,8.50
2024-04-15T04:12:19.108Z,8.40
2024-04-15T04:22:26.507Z,8.50
2024-04-15T04:32:35.604Z,8.70
2024-04-15T04:42:40.476Z,9.30
2024-04-15T04:52:47.962Z,9.10
2024-04-15T05:02:53.080Z,9.40
2024-04-15T05:13:00.738Z,9.30
2024-04-15T05:23:05.752Z,9.60
2024-04-15T05:33:13.891Z,9.40
2024-04-15T05:43:18.844Z,9.50
2024-04-15T05:53:26.492Z,9.40
2024-04-15T06:03:31.642Z,9.70
2024-04-15T06:13:39.137Z,10.00
2024-04-15T06:23:44.355Z,10.10
2024-04-15T06:33:51.924Z,10.30
2024-04-15T06:43:56.942Z,11.30
2024-04-15T06:54:04.557Z,12.00
2024-04-15T07:04:09.795Z,12.80
2024-04-15T07:14:17.341Z,12.10
2024-04-15T07:24:22.240Z,11.10
2024-04-15T07:34:29.755Z,10.70
2024-04-15T07:44:34.803Z,11.80
2024-04-15T07:54:42.297Z,11.20
2024-04-15T08:04:47.963Z,11.10
2024-04-15T08:14:55.580Z,11.00
2024-04-15T08:25:00.798Z,11.20
2024-04-15T08:35:09.228Z,11.30
2024-04-15T08:45:20.622Z,11.10
2024-04-15T08:55:28.914Z,12.00
2024-04-15T09:05:33.960Z,14.90
2024-04-15T09:15:41.592Z,13.00
2024-04-15T09:25:46.592Z,12.80
2024-04-15T09:35:54.284Z,11.30
2024-04-15T09:46:00.216Z,10.70
2024-04-15T09:56:14.796Z,10.10
2024-04-15T10:06:23.188Z,9.60
2024-04-15T10:16:36.878Z,10.00
2024-04-15T10:26:50.562Z,10.00
2024-04-15T10:36:59.176Z,10.70
2024-04-15T10:47:04.270Z,11.40
2024-04-15T10:57:12.361Z,11.60
2024-04-15T11:07:17.342Z,11.50
2024-04-15T11:17:24.946Z,11.20
2024-04-15T11:27:31.778Z,11.10
2024-04-15T11:48:36.306Z,11.50
2024-04-15T11:58:41.352Z,11.70
2024-04-15T12:08:49.318Z,11.90
2024-04-15T12:18:54.435Z,12.20
2024-04-15T12:29:02.166Z,12.50
2024-04-15T12:39:07.257Z,13.50
2024-04-15T12:49:15.160Z,16.30
2024-04-15T13:33:36.822Z,13.20
2024-04-15T13:43:42.669Z,13.20
2024-04-15T13:53:50.171Z,13.00
2024-04-15T14:03:55.139Z,12.90
2024-04-15T14:14:02.778Z,12.30
2024-04-15T14:24:11.209Z,12.40
2024-04-15T14:34:18.743Z,12.20
2024-04-15T14:44:23.652Z,11.90
2024-04-15T14:54:31.124Z,11.40
2024-04-15T15:04:36.099Z,11.60
2024-04-15T15:14:43.587Z,10.80
2024-04-15T15:24:48.506Z,10.60
2024-04-15T15:34:56.015Z,11.60
2024-04-15T15:45:01.175Z,10.40
2024-04-15T15:55:11.015Z,10.40
2024-04-15T16:05:16.457Z,10.70
2024-04-15T16:15:24.557Z,10.30
2024-04-15T16:35:37.481Z,10.60
2024-04-15T17:26:11.386Z,10.30
2024-04-15T17:56:32.682Z,10.20
2024-04-15T18:16:45.551Z,10.10
2024-04-15T18:26:50.611Z,9.70
2024-04-15T18:47:04.683Z,9.40
2024-04-15T18:57:12.479Z,8.00
2024-04-15T19:07:17.584Z,9.50
2024-04-15T19:17:25.567Z,9.40
2024-04-15T19:27:30.630Z,9.20
2024-04-15T19:37:38.261Z,8.90
2024-04-15T19:47:43.392Z,9.00
2024-04-15T19:57:51.056Z,9.10
2024-04-15T20:08:03.160Z,9.00
2024-04-15T20:18:24.005Z,8.80
2024-04-15T20:28:29.102Z,8.70
2024-04-15T20:38:38.502Z,8.90
2024-04-15T20:48:43.470Z,9.00
2024-04-15T20:58:51.040Z,8.70
2024-04-15T21:08:56.733Z,9.20
2024-04-15T21:19:04.269Z,9.00
2024-04-15T21:29:09.189Z,9.00
2024-04-15T21:39:16.682Z,9.00
2024-04-15T21:49:22.358Z,8.90
2024-04-15T21:59:30.090Z,9.20
2024-04-15T22:09:34.991Z,9.40
2024-04-15T22:19:42.622Z,9.00
2024-04-15T22:29:47.562Z,9.00
2024-04-15T22:39:56.854Z,8.80
2024-04-15T22:50:01.773Z,8.30
2024-04-15T23:00:10.825Z,8.00
2024-04-15T23:10:15.733Z,8.10
2024-04-15T23:20:23.238Z,8.10
2024-04-15T23:30:28.142Z,8.50
2024-04-15T23:40:35.713Z,8.20
2024-04-15T23:50:40.572Z,7.60
